METAR AND TAF INFORMATION
METAR FOR UMMS
ADDS - METARS form results

(0411 UTC 26 February 2020)
Data provider http://aviationweather.gov/metar/data/
 
METAR text: UMMS 260400Z 25004G07MPS 210V270 7000 SCT009 BKN017 05/05 Q0991 R88/290050 NOSIG
Conditions at: UMMS (MINSK , BY) observed 0400 UTC 26 February 2020
Temperature: 5.0°C (41°F)
Dewpoint: 5.0°C (41°F) [RH = 100%]
Pressure (altimeter): 29.26 inches Hg (991.0 mb)
Winds: from the WSW (250 degrees) at 9 MPH (8 knots; 4.1 m/s)
gusting to 16 MPH (14 knots; 7.2 m/s)
Visibility: 4 miles ( 7 km)
Ceiling: 1700 feet AGL
Clouds: scattered clouds at 900 feet AGL
broken clouds at 1700 feet AGL
Weather: no significant weather observed at this time

METAR text: UMMS 260355Z 24004G07MPS 210V270 4100 BR SCT006 BKN016 05/05 Q0991 R88/290050 NOSIG RMK QBB190
Conditions at: UMMS (MINSK , BY) observed 0355 UTC 26 February 2020
Temperature: 5.0°C (41°F)
Dewpoint: 5.0°C (41°F) [RH = 100%]
Pressure (altimeter): 29.26 inches Hg (991.0 mb)
Winds: from the WSW (240 degrees) at 9 MPH (8 knots; 4.1 m/s)
gusting to 16 MPH (14 knots; 7.2 m/s)
Visibility: 2.55 miles (4.10 km)
Ceiling: 1600 feet AGL
Clouds: scattered clouds at 600 feet AGL
broken clouds at 1600 feet AGL
Weather: BR  (mist)

METAR text: UMMS 260330Z 24003MPS 3800 -RA BR OVC004 05/05 Q0991 R88/290050 NOSIG RMK QBB130
Conditions at: UMMS (MINSK , BY) observed 0330 UTC 26 February 2020
Temperature: 5.0°C (41°F)
Dewpoint: 5.0°C (41°F) [RH = 100%]
Pressure (altimeter): 29.26 inches Hg (991.0 mb)
Winds: from the WSW (240 degrees) at 7 MPH (6 knots; 3.1 m/s)
Visibility: 2.36 miles (3.80 km)
Ceiling: 400 feet AGL
Clouds: overcast cloud deck at 400 feet AGL
Weather: -RA BR  (light rain, mist)

METAR text: UMMS 260322Z 25003MPS 220V290 2600 -RA BR OVC004 05/05 Q0990 R88/290050 NOSIG RMK QBB120
Conditions at: UMMS (MINSK , BY) observed 0322 UTC 26 February 2020
Temperature: 5.0°C (41°F)
Dewpoint: 5.0°C (41°F) [RH = 100%]
Pressure (altimeter): 29.23 inches Hg (990.0 mb)
Winds: from the WSW (250 degrees) at 7 MPH (6 knots; 3.1 m/s)
Visibility: 1.62 miles (2.61 km)
Ceiling: 400 feet AGL
Clouds: overcast cloud deck at 400 feet AGL
Weather: -RA BR  (light rain, mist)

METAR text: UMMS 260318Z 26003MPS 230V290 3300 -RA BR OVC003 05/05 Q0990 R88/290050 NOSIG RMK QBB100
Conditions at: UMMS (MINSK , BY) observed 0318 UTC 26 February 2020
Temperature: 5.0°C (41°F)
Dewpoint: 5.0°C (41°F) [RH = 100%]
Pressure (altimeter): 29.23 inches Hg (990.0 mb)
Winds: from the W (260 degrees) at 7 MPH (6 knots; 3.1 m/s)
Visibility: 2.05 miles (3.30 km)
Ceiling: 300 feet AGL
Clouds: overcast cloud deck at 300 feet AGL
Weather: -RA BR  (light rain, mist)

Forecast for: UMMS (MINSK , BY)
Text: TAF UMMS 252305Z 2600/2624 22005G10MPS 0300 -RASN FG BKN002 TX06/2612Z TNM00/2602Z
Forecast period: 0000 to 0700 UTC 26 February 2020
Forecast type: FROM: standard forecast or significant change
Winds: from the SW (220 degrees) at 12 MPH (10 knots; 5.1 m/s)
gusting to 22 MPH (19 knots; 9.8 m/s)
Visibility: 0.19 miles (0.31 km)
Ceiling: 200 feet AGL
Clouds: broken clouds at 200 feet AGL
Weather: -RA -SN FG  (light rain, light snow, fog)
Text: TEMPO 2600/2607 0900 SHRASN FZFG BKN015CB
Forecast period: 0000 to 0700 UTC 26 February 2020
Forecast type: TEMPORARY: The following changes expected for less than half the time period
Visibility: 0.56 miles (0.90 km)
Ceiling: 1500 feet AGL
Clouds: broken clouds at 1500 feet AGL
Weather: SHRA SHSN FZFG  (rain showers, snow showers, freezing fog)
Text: BECMG 2607/2608 6000 NSW BKN010
Forecast period: 0700 UTC 26 February 2020 to 0000 UTC 27 February 2020
Forecast type: BECOMING: Conditions expected to become as follows by 0800 UTC 26 February 2020
Winds: from the SW (220 degrees) at 12 MPH (10 knots; 5.1 m/s)
gusting to 22 MPH (19 knots; 9.8 m/s)
Visibility: 4 miles (6 km)
Ceiling: 1000 feet AGL
Clouds: broken clouds at 1000 feet AGL
Weather: NSW  (no significant weather)
Text: TEMPO 2614/2624 25006MPS 1200 -SHRA BR BKN003 BKN015CB
Forecast period: 1400 UTC 26 February 2020 to 0000 UTC 27 February 2020
Forecast type: TEMPORARY: The following changes expected for less than half the time period
Winds: from the WSW (250 degrees) at 14 MPH (12 knots; 6.2 m/s)
Visibility: 0.75 miles (1.21 km)
Ceiling: 300 feet AGL
Clouds: broken clouds at 300 feet AGL
broken clouds at 1500 feet AGL
Weather: -SHRA BR  (light rain showers, mist)

 AIRPORT MAP

 RUNWAY INFORMATION
Runway 13 Runway length 11946 ft Runway width 197 ft
Runway elevation 640 ft Runway displaced threshold 0 ft Runway heading 139
Runway 31 Runway length 11946 ft Runway width 197 ft
Runway elevation 670 ft Runway displaced threshold 0 ft Runway heading 319

 AIRPORT FREQUENCIES
Type APP Name MINSK APP Frequency 125.9 MHZ
Type ATIS Name ATIS Frequency 128.85 MHZ
Type GND Name GND Frequency 121.7 MHZ
Type PMSV Name MINSK VOLM Frequency 126.675 MHZ
Type RDR Name MINSK RADA Frequency 125.25 MHZ
Type TWR Name TWR Frequency 118.3 MHZ

 AIRPORT NEAR NAVIGATION AIDS
Type NDB Name Minsk-2 Frequency 635 KHZ
Type VOR-DME Name Minsk-2 Frequency 113600 KHZ
Type NDB Name Minsk-2 Frequency 635 KHZ



Powered by Virtual Airlines Manager [v2.6.2]